sensor_id;sensor_type;location;lat;lon;timestamp;temperature;humidity
17887;DHT22;9069;52.044;7.472;2024-02-21T00:00:57;12.20;99.90
17887;DHT22;9069;52.044;7.472;2024-02-21T00:03:24;12.20;99.90
17887;DHT22;9069;52.044;7.472;2024-02-21T00:05:50;12.20;99.90
17887;DHT22;9069;52.044;7.472;2024-02-21T00:08:17;12.20;99.90
17887;DHT22;9069;52.044;7.472;2024-02-21T00:10:45;12.20;99.90
17887;DHT22;9069;52.044;7.472;2024-02-21T00:13:12;12.20;99.90
17887;DHT22;9069;52.044;7.472;2024-02-21T00:15:38;12.20;99.90
17887;DHT22;9069;52.044;7.472;2024-02-21T00:18:05;12.20;99.90
17887;DHT22;9069;52.044;7.472;2024-02-21T00:20:32;12.20;99.90
17887;DHT22;9069;52.044;7.472;2024-02-21T00:22:59;12.20;99.90
17887;DHT22;9069;52.044;7.472;2024-02-21T00:25:27;12.20;99.90
17887;DHT22;9069;52.044;7.472;2024-02-21T00:27:54;12.20;99.90
17887;DHT22;9069;52.044;7.472;2024-02-21T00:30:21;12.20;99.90
17887;DHT22;9069;52.044;7.472;2024-02-21T00:32:48;12.20;99.90
17887;DHT22;9069;52.044;7.472;2024-02-21T00:35:15;12.20;99.90
17887;DHT22;9069;52.044;7.472;2024-02-21T00:37:42;12.20;99.90
17887;DHT22;9069;52.044;7.472;2024-02-21T00:40:09;12.20;99.90
17887;DHT22;9069;52.044;7.472;2024-02-21T00:42:36;12.20;99.90
17887;DHT22;9069;52.044;7.472;2024-02-21T00:45:04;12.20;99.90
17887;DHT22;9069;52.044;7.472;2024-02-21T00:47:30;12.20;99.90
17887;DHT22;9069;52.044;7.472;2024-02-21T00:49:57;12.20;99.90
17887;DHT22;9069;52.044;7.472;2024-02-21T00:52:24;12.20;99.90
17887;DHT22;9069;52.044;7.472;2024-02-21T00:54:51;12.20;99.90
17887;DHT22;9069;52.044;7.472;2024-02-21T00:57:20;12.20;99.90
17887;DHT22;9069;52.044;7.472;2024-02-21T00:59:47;12.20;99.90
17887;DHT22;9069;52.044;7.472;2024-02-21T01:02:14;12.20;99.90
17887;DHT22;9069;52.044;7.472;2024-02-21T01:04:41;12.20;99.90
17887;DHT22;9069;52.044;7.472;2024-02-21T01:07:08;12.20;99.90
17887;DHT22;9069;52.044;7.472;2024-02-21T01:09:35;12.20;99.90
17887;DHT22;9069;52.044;7.472;2024-02-21T01:12:02;12.30;99.90
17887;DHT22;9069;52.044;7.472;2024-02-21T01:14:29;12.30;99.90
17887;DHT22;9069;52.044;7.472;2024-02-21T01:16:56;12.30;99.90
17887;DHT22;9069;52.044;7.472;2024-02-21T01:19:23;12.30;99.90
17887;DHT22;9069;52.044;7.472;2024-02-21T01:21:50;12.30;99.90
17887;DHT22;9069;52.044;7.472;2024-02-21T01:24:17;12.30;99.90
17887;DHT22;9069;52.044;7.472;2024-02-21T01:26:44;12.30;99.90
17887;DHT22;9069;52.044;7.472;2024-02-21T01:29:11;12.30;99.90
17887;DHT22;9069;52.044;7.472;2024-02-21T01:31:38;12.30;99.90
17887;DHT22;9069;52.044;7.472;2024-02-21T01:34:05;12.30;99.90
17887;DHT22;9069;52.044;7.472;2024-02-21T01:36:32;12.30;99.90
17887;DHT22;9069;52.044;7.472;2024-02-21T01:38:59;12.30;99.90
17887;DHT22;9069;52.044;7.472;2024-02-21T01:41:30;12.20;99.90
17887;DHT22;9069;52.044;7.472;2024-02-21T01:43:58;12.30;99.90
17887;DHT22;9069;52.044;7.472;2024-02-21T01:46:25;12.30;99.90
17887;DHT22;9069;52.044;7.472;2024-02-21T01:48:57;12.30;99.90
17887;DHT22;9069;52.044;7.472;2024-02-21T01:51:25;12.30;99.90
17887;DHT22;9069;52.044;7.472;2024-02-21T01:53:53;12.30;99.90
17887;DHT22;9069;52.044;7.472;2024-02-21T01:56:22;12.30;99.90
17887;DHT22;9069;52.044;7.472;2024-02-21T01:58:49;12.30;99.90
17887;DHT22;9069;52.044;7.472;2024-02-21T02:01:16;12.30;99.90
17887;DHT22;9069;52.044;7.472;2024-02-21T02:03:48;12.30;99.90
17887;DHT22;9069;52.044;7.472;2024-02-21T02:06:15;12.30;99.90
17887;DHT22;9069;52.044;7.472;2024-02-21T02:08:42;12.30;99.90
17887;DHT22;9069;52.044;7.472;2024-02-21T02:11:10;12.30;99.90
17887;DHT22;9069;52.044;7.472;2024-02-21T02:13:37;12.30;99.90
17887;DHT22;9069;52.044;7.472;2024-02-21T02:16:05;12.30;99.90
17887;DHT22;9069;52.044;7.472;2024-02-21T02:18:32;12.30;99.90
17887;DHT22;9069;52.044;7.472;2024-02-21T02:20:59;12.30;99.90
17887;DHT22;9069;52.044;7.472;2024-02-21T02:23:32;12.30;99.90
17887;DHT22;9069;52.044;7.472;2024-02-21T02:26:00;12.30;99.90
17887;DHT22;9069;52.044;7.472;2024-02-21T02:28:34;12.30;99.90
17887;DHT22;9069;52.044;7.472;2024-02-21T02:31:03;12.30;99.90
17887;DHT22;9069;52.044;7.472;2024-02-21T02:33:30;12.30;99.90
17887;DHT22;9069;52.044;7.472;2024-02-21T02:35:57;12.20;99.90
17887;DHT22;9069;52.044;7.472;2024-02-21T02:38:25;12.20;99.90
17887;DHT22;9069;52.044;7.472;2024-02-21T02:40:52;12.20;99.90
17887;DHT22;9069;52.044;7.472;2024-02-21T02:43:19;12.20;99.90
17887;DHT22;9069;52.044;7.472;2024-02-21T02:45:45;12.20;99.90
17887;DHT22;9069;52.044;7.472;2024-02-21T02:48:12;12.20;99.90
17887;DHT22;9069;52.044;7.472;2024-02-21T02:50:39;12.20;99.90
17887;DHT22;9069;52.044;7.472;2024-02-21T02:53:06;12.20;99.90
17887;DHT22;9069;52.044;7.472;2024-02-21T02:55:33;12.20;99.90
17887;DHT22;9069;52.044;7.472;2024-02-21T02:58:02;12.20;99.90
17887;DHT22;9069;52.044;7.472;2024-02-21T03:00:29;12.30;99.90
17887;DHT22;9069;52.044;7.472;2024-02-21T03:02:56;12.30;99.90
17887;DHT22;9069;52.044;7.472;2024-02-21T03:05:23;12.30;99.90
17887;DHT22;9069;52.044;7.472;2024-02-21T03:07:50;12.30;99.90
17887;DHT22;9069;52.044;7.472;2024-02-21T03:10:17;12.30;99.90
17887;DHT22;9069;52.044;7.472;2024-02-21T03:12:45;12.30;99.90
17887;DHT22;9069;52.044;7.472;2024-02-21T03:15:13;12.30;99.90
17887;DHT22;9069;52.044;7.472;2024-02-21T03:17:41;12.30;99.90
17887;DHT22;9069;52.044;7.472;2024-02-21T03:20:08;12.30;99.90
17887;DHT22;9069;52.044;7.472;2024-02-21T03:22:38;12.30;99.90
17887;DHT22;9069;52.044;7.472;2024-02-21T03:25:05;12.30;99.90
17887;DHT22;9069;52.044;7.472;2024-02-21T03:27:33;12.30;99.90
17887;DHT22;9069;52.044;7.472;2024-02-21T03:30:01;12.30;99.90
17887;DHT22;9069;52.044;7.472;2024-02-21T03:32:28;12.30;99.90
17887;DHT22;9069;52.044;7.472;2024-02-21T03:34:56;12.30;99.90
17887;DHT22;9069;52.044;7.472;2024-02-21T03:37:23;12.30;99.90
17887;DHT22;9069;52.044;7.472;2024-02-21T03:39:50;12.30;99.90
17887;DHT22;9069;52.044;7.472;2024-02-21T03:42:17;12.30;99.90
17887;DHT22;9069;52.044;7.472;2024-02-21T03:44:44;12.30;99.90
17887;DHT22;9069;52.044;7.472;2024-02-21T03:47:10;12.30;99.90
17887;DHT22;9069;52.044;7.472;2024-02-21T03:49:39;12.30;99.90
17887;DHT22;9069;52.044;7.472;2024-02-21T03:52:06;12.30;99.90
17887;DHT22;9069;52.044;7.472;2024-02-21T03:54:33;12.30;99.90
17887;DHT22;9069;52.044;7.472;2024-02-21T03:57:00;12.30;99.90
17887;DHT22;9069;52.044;7.472;2024-02-21T03:59:28;12.30;99.90
17887;DHT22;9069;52.044;7.472;2024-02-21T04:01:55;12.30;99.90
17887;DHT22;9069;52.044;7.472;2024-02-21T04:04:22;12.30;99.90
17887;DHT22;9069;52.044;7.472;2024-02-21T04:06:50;12.30;99.90
17887;DHT22;9069;52.044;7.472;2024-02-21T04:09:17;12.30;99.90
17887;DHT22;9069;52.044;7.472;2024-02-21T04:11:44;12.30;99.90
17887;DHT22;9069;52.044;7.472;2024-02-21T04:14:11;12.30;99.90
17887;DHT22;9069;52.044;7.472;2024-02-21T04:16:39;12.30;99.90
17887;DHT22;9069;52.044;7.472;2024-02-21T04:19:07;12.30;99.90
17887;DHT22;9069;52.044;7.472;2024-02-21T04:21:35;12.30;99.90
17887;DHT22;9069;52.044;7.472;2024-02-21T04:24:02;12.30;99.90
17887;DHT22;9069;52.044;7.472;2024-02-21T04:26:32;12.30;99.90
17887;DHT22;9069;52.044;7.472;2024-02-21T04:28:59;12.30;99.90
17887;DHT22;9069;52.044;7.472;2024-02-21T04:31:26;12.30;99.90
17887;DHT22;9069;52.044;7.472;2024-02-21T04:33:53;12.30;99.90
17887;DHT22;9069;52.044;7.472;2024-02-21T04:36:20;12.30;99.90
17887;DHT22;9069;52.044;7.472;2024-02-21T04:38:48;12.30;99.90
17887;DHT22;9069;52.044;7.472;2024-02-21T04:41:15;12.30;99.90
17887;DHT22;9069;52.044;7.472;2024-02-21T04:43:42;12.30;99.90
17887;DHT22;9069;52.044;7.472;2024-02-21T04:46:09;12.30;99.90
17887;DHT22;9069;52.044;7.472;2024-02-21T04:48:36;12.30;99.90
17887;DHT22;9069;52.044;7.472;2024-02-21T04:51:03;12.30;99.90
17887;DHT22;9069;52.044;7.472;2024-02-21T04:53:30;12.30;99.90
17887;DHT22;9069;52.044;7.472;2024-02-21T04:55:57;12.30;99.90
17887;DHT22;9069;52.044;7.472;2024-02-21T04:58:24;12.30;99.90
17887;DHT22;9069;52.044;7.472;2024-02-21T05:00:51;12.30;99.90
17887;DHT22;9069;52.044;7.472;2024-02-21T05:03:18;12.30;99.90
17887;DHT22;9069;52.044;7.472;2024-02-21T05:05:45;12.30;99.90
17887;DHT22;9069;52.044;7.472;2024-02-21T05:08:11;12.30;99.90
17887;DHT22;9069;52.044;7.472;2024-02-21T05:10:38;12.30;99.90
17887;DHT22;9069;52.044;7.472;2024-02-21T05:13:05;12.30;99.90
17887;DHT22;9069;52.044;7.472;2024-02-21T05:15:32;12.30;99.90
17887;DHT22;9069;52.044;7.472;2024-02-21T05:17:59;12.30;99.90
17887;DHT22;9069;52.044;7.472;2024-02-21T05:20:27;12.30;99.90
17887;DHT22;9069;52.044;7.472;2024-02-21T05:22:54;12.30;99.90
17887;DHT22;9069;52.044;7.472;2024-02-21T05:25:21;12.30;99.90
17887;DHT22;9069;52.044;7.472;2024-02-21T05:27:50;12.30;99.90
17887;DHT22;9069;52.044;7.472;2024-02-21T05:30:18;12.30;99.90
17887;DHT22;9069;52.044;7.472;2024-02-21T05:32:45;12.30;99.90
17887;DHT22;9069;52.044;7.472;2024-02-21T05:35:12;12.30;99.90
17887;DHT22;9069;52.044;7.472;2024-02-21T05:37:39;12.20;99.90
17887;DHT22;9069;52.044;7.472;2024-02-21T05:40:06;12.30;99.90
17887;DHT22;9069;52.044;7.472;2024-02-21T05:42:33;12.30;99.90
17887;DHT22;9069;52.044;7.472;2024-02-21T05:45:00;12.30;99.90
17887;DHT22;9069;52.044;7.472;2024-02-21T05:47:28;12.30;99.90
17887;DHT22;9069;52.044;7.472;2024-02-21T05:49:55;12.30;99.90
17887;DHT22;9069;52.044;7.472;2024-02-21T05:52:22;12.30;99.90
17887;DHT22;9069;52.044;7.472;2024-02-21T05:54:49;12.30;99.90
17887;DHT22;9069;52.044;7.472;2024-02-21T05:57:17;12.20;99.90
17887;DHT22;9069;52.044;7.472;2024-02-21T05:59:44;12.20;99.90
17887;DHT22;9069;52.044;7.472;2024-02-21T06:02:11;12.30;99.90
17887;DHT22;9069;52.044;7.472;2024-02-21T06:04:39;12.20;99.90
17887;DHT22;9069;52.044;7.472;2024-02-21T06:07:07;12.30;99.90
17887;DHT22;9069;52.044;7.472;2024-02-21T06:09:34;12.30;99.90
17887;DHT22;9069;52.044;7.472;2024-02-21T06:12:01;12.30;99.90
17887;DHT22;9069;52.044;7.472;2024-02-21T06:14:28;12.30;99.90
17887;DHT22;9069;52.044;7.472;2024-02-21T06:16:55;12.20;99.90
17887;DHT22;9069;52.044;7.472;2024-02-21T06:19:22;12.20;99.90
17887;DHT22;9069;52.044;7.472;2024-02-21T06:21:49;12.20;99.90
17887;DHT22;9069;52.044;7.472;2024-02-21T06:24:15;12.20;99.90
17887;DHT22;9069;52.044;7.472;2024-02-21T06:26:42;12.20;99.90
17887;DHT22;9069;52.044;7.472;2024-02-21T06:29:11;12.20;99.90
17887;DHT22;9069;52.044;7.472;2024-02-21T06:31:40;12.30;99.90
17887;DHT22;9069;52.044;7.472;2024-02-21T06:34:07;12.20;99.90
17887;DHT22;9069;52.044;7.472;2024-02-21T06:36:34;12.20;99.90
17887;DHT22;9069;52.044;7.472;2024-02-21T06:39:01;12.20;99.90
17887;DHT22;9069;52.044;7.472;2024-02-21T06:41:28;12.20;99.90
17887;DHT22;9069;52.044;7.472;2024-02-21T06:43:57;12.20;99.90
17887;DHT22;9069;52.044;7.472;2024-02-21T06:46:28;12.20;99.90
17887;DHT22;9069;52.044;7.472;2024-02-21T06:49:00;12.20;99.90
17887;DHT22;9069;52.044;7.472;2024-02-21T06:51:27;12.20;99.90
17887;DHT22;9069;52.044;7.472;2024-02-21T06:53:55;12.20;99.90
17887;DHT22;9069;52.044;7.472;2024-02-21T06:56:25;12.20;99.90
17887;DHT22;9069;52.044;7.472;2024-02-21T06:58:56;12.20;99.90
17887;DHT22;9069;52.044;7.472;2024-02-21T07:01:24;12.20;99.90
17887;DHT22;9069;52.044;7.472;2024-02-21T07:03:51;12.20;99.90
17887;DHT22;9069;52.044;7.472;2024-02-21T07:06:17;12.20;99.90
17887;DHT22;9069;52.044;7.472;2024-02-21T07:08:44;12.20;99.90
17887;DHT22;9069;52.044;7.472;2024-02-21T07:11:11;12.20;99.90
17887;DHT22;9069;52.044;7.472;2024-02-21T07:13:38;12.20;99.90
17887;DHT22;9069;52.044;7.472;2024-02-21T07:16:06;12.20;99.90
17887;DHT22;9069;52.044;7.472;2024-02-21T07:18:34;12.20;99.90
17887;DHT22;9069;52.044;7.472;2024-02-21T07:21:01;12.20;99.90
17887;DHT22;9069;52.044;7.472;2024-02-21T07:23:30;12.20;99.90
17887;DHT22;9069;52.044;7.472;2024-02-21T07:25:57;12.30;99.90
17887;DHT22;9069;52.044;7.472;2024-02-21T07:28:24;12.30;99.90
17887;DHT22;9069;52.044;7.472;2024-02-21T07:30:51;12.30;99.90
17887;DHT22;9069;52.044;7.472;2024-02-21T07:33:17;12.30;99.90
17887;DHT22;9069;52.044;7.472;2024-02-21T07:35:44;12.30;99.90
17887;DHT22;9069;52.044;7.472;2024-02-21T07:38:11;12.30;99.90
17887;DHT22;9069;52.044;7.472;2024-02-21T07:40:39;12.30;99.90
17887;DHT22;9069;52.044;7.472;2024-02-21T07:43:06;12.30;99.90
17887;DHT22;9069;52.044;7.472;2024-02-21T07:45:34;12.30;99.90
17887;DHT22;9069;52.044;7.472;2024-02-21T07:48:02;12.30;99.90
17887;DHT22;9069;52.044;7.472;2024-02-21T07:50:29;12.30;99.90
17887;DHT22;9069;52.044;7.472;2024-02-21T07:52:55;12.40;99.90
17887;DHT22;9069;52.044;7.472;2024-02-21T07:55:22;12.30;99.90
17887;DHT22;9069;52.044;7.472;2024-02-21T07:57:49;12.40;99.90
17887;DHT22;9069;52.044;7.472;2024-02-21T08:00:16;12.40;99.90
17887;DHT22;9069;52.044;7.472;2024-02-21T08:02:48;12.40;99.90
17887;DHT22;9069;52.044;7.472;2024-02-21T08:05:15;12.50;99.90
17887;DHT22;9069;52.044;7.472;2024-02-21T08:07:42;12.50;99.90
17887;DHT22;9069;52.044;7.472;2024-02-21T08:10:09;12.50;99.90
17887;DHT22;9069;52.044;7.472;2024-02-21T08:12:36;12.50;99.90
17887;DHT22;9069;52.044;7.472;2024-02-21T08:15:03;12.60;99.90
17887;DHT22;9069;52.044;7.472;2024-02-21T08:17:30;12.60;99.90
17887;DHT22;9069;52.044;7.472;2024-02-21T08:19:57;12.60;99.90
17887;DHT22;9069;52.044;7.472;2024-02-21T08:22:24;12.70;99.90
17887;DHT22;9069;52.044;7.472;2024-02-21T08:24:53;12.70;99.90
17887;DHT22;9069;52.044;7.472;2024-02-21T08:27:20;12.70;99.90
17887;DHT22;9069;52.044;7.472;2024-02-21T08:29:46;12.70;99.90
17887;DHT22;9069;52.044;7.472;2024-02-21T08:32:13;12.70;99.90
17887;DHT22;9069;52.044;7.472;2024-02-21T08:34:40;12.80;99.90
17887;DHT22;9069;52.044;7.472;2024-02-21T08:37:07;12.80;99.90
17887;DHT22;9069;52.044;7.472;2024-02-21T08:39:34;12.80;99.90
17887;DHT22;9069;52.044;7.472;2024-02-21T08:42:01;12.80;99.90
17887;DHT22;9069;52.044;7.472;2024-02-21T08:44:28;12.90;99.90
17887;DHT22;9069;52.044;7.472;2024-02-21T08:46:55;12.90;99.90
17887;DHT22;9069;52.044;7.472;2024-02-21T08:49:23;12.90;99.90
17887;DHT22;9069;52.044;7.472;2024-02-21T08:51:57;12.90;99.90
17887;DHT22;9069;52.044;7.472;2024-02-21T08:54:23;12.90;99.80
17887;DHT22;9069;52.044;7.472;2024-02-21T08:56:50;13.00;99.80
17887;DHT22;9069;52.044;7.472;2024-02-21T08:59:17;13.00;99.80
17887;DHT22;9069;52.044;7.472;2024-02-21T09:01:44;13.00;99.80
17887;DHT22;9069;52.044;7.472;2024-02-21T09:04:11;13.00;99.80
17887;DHT22;9069;52.044;7.472;2024-02-21T09:06:38;13.00;99.80
17887;DHT22;9069;52.044;7.472;2024-02-21T09:09:09;13.10;99.70
17887;DHT22;9069;52.044;7.472;2024-02-21T09:11:36;13.10;99.70
17887;DHT22;9069;52.044;7.472;2024-02-21T09:14:03;13.20;99.70
17887;DHT22;9069;52.044;7.472;2024-02-21T09:16:31;13.20;99.60
17887;DHT22;9069;52.044;7.472;2024-02-21T09:18:59;13.20;99.50
17887;DHT22;9069;52.044;7.472;2024-02-21T09:21:29;13.30;99.50
17887;DHT22;9069;52.044;7.472;2024-02-21T09:23:56;13.30;99.50
17887;DHT22;9069;52.044;7.472;2024-02-21T09:26:27;13.20;99.30
17887;DHT22;9069;52.044;7.472;2024-02-21T09:28:53;13.30;99.30
17887;DHT22;9069;52.044;7.472;2024-02-21T09:31:21;13.30;99.20
17887;DHT22;9069;52.044;7.472;2024-02-21T09:33:48;13.40;99.20
17887;DHT22;9069;52.044;7.472;2024-02-21T09:36:15;13.30;99.10
17887;DHT22;9069;52.044;7.472;2024-02-21T09:38:41;13.30;99.10
17887;DHT22;9069;52.044;7.472;2024-02-21T09:41:15;13.30;99.10
17887;DHT22;9069;52.044;7.472;2024-02-21T09:43:51;13.30;98.90
17887;DHT22;9069;52.044;7.472;2024-02-21T09:46:27;13.30;99.10
17887;DHT22;9069;52.044;7.472;2024-02-21T09:51:54;13.40;98.60
17887;DHT22;9069;52.044;7.472;2024-02-21T09:54:22;13.40;99.00
17887;DHT22;9069;52.044;7.472;2024-02-21T09:56:49;13.50;99.00
17887;DHT22;9069;52.044;7.472;2024-02-21T09:59:16;13.40;99.00
17887;DHT22;9069;52.044;7.472;2024-02-21T10:01:44;13.40;98.90
17887;DHT22;9069;52.044;7.472;2024-02-21T10:04:12;13.40;98.80
17887;DHT22;9069;52.044;7.472;2024-02-21T10:06:39;13.40;98.80
17887;DHT22;9069;52.044;7.472;2024-02-21T10:09:06;13.40;98.70
17887;DHT22;9069;52.044;7.472;2024-02-21T10:11:33;13.40;98.70
17887;DHT22;9069;52.044;7.472;2024-02-21T10:14:05;13.50;98.70
17887;DHT22;9069;52.044;7.472;2024-02-21T10:16:33;13.50;98.50
17887;DHT22;9069;52.044;7.472;2024-02-21T10:19:02;13.50;98.50
17887;DHT22;9069;52.044;7.472;2024-02-21T10:21:30;13.50;98.40
17887;DHT22;9069;52.044;7.472;2024-02-21T10:23:57;13.50;98.50
17887;DHT22;9069;52.044;7.472;2024-02-21T10:26:24;13.50;98.40
17887;DHT22;9069;52.044;7.472;2024-02-21T10:28:50;13.50;98.40
17887;DHT22;9069;52.044;7.472;2024-02-21T10:31:25;13.90;98.40
17887;DHT22;9069;52.044;7.472;2024-02-21T10:34:00;13.60;98.10
17887;DHT22;9069;52.044;7.472;2024-02-21T10:36:30;13.60;97.80
17887;DHT22;9069;52.044;7.472;2024-02-21T10:38:57;13.60;98.20
17887;DHT22;9069;52.044;7.472;2024-02-21T10:41:24;13.70;98.20
17887;DHT22;9069;52.044;7.472;2024-02-21T10:43:53;13.70;98.20
17887;DHT22;9069;52.044;7.472;2024-02-21T10:46:22;13.70;98.10
17887;DHT22;9069;52.044;7.472;2024-02-21T10:49:22;13.70;98.10
17887;DHT22;9069;52.044;7.472;2024-02-21T10:54:44;13.80;97.90
17887;DHT22;9069;52.044;7.472;2024-02-21T10:57:13;13.80;97.50
17887;DHT22;9069;52.044;7.472;2024-02-21T10:59:44;13.80;97.90
17887;DHT22;9069;52.044;7.472;2024-02-21T11:02:11;13.80;97.80
17887;DHT22;9069;52.044;7.472;2024-02-21T11:04:38;13.80;98.00
17887;DHT22;9069;52.044;7.472;2024-02-21T11:07:07;13.80;98.40
17887;DHT22;9069;52.044;7.472;2024-02-21T11:09:37;13.80;98.00
17887;DHT22;9069;52.044;7.472;2024-02-21T11:12:06;13.80;98.00
17887;DHT22;9069;52.044;7.472;2024-02-21T11:14:34;13.90;97.90
17887;DHT22;9069;52.044;7.472;2024-02-21T11:17:18;13.90;97.80
17887;DHT22;9069;52.044;7.472;2024-02-21T11:19:46;13.90;97.30
17887;DHT22;9069;52.044;7.472;2024-02-21T11:22:20;13.90;97.90
17887;DHT22;9069;52.044;7.472;2024-02-21T11:24:51;13.90;97.30
17887;DHT22;9069;52.044;7.472;2024-02-21T11:27:21;13.90;97.70
17887;DHT22;9069;52.044;7.472;2024-02-21T11:29:49;14.00;97.50
17887;DHT22;9069;52.044;7.472;2024-02-21T11:32:21;14.00;97.50
17887;DHT22;9069;52.044;7.472;2024-02-21T11:37:21;14.00;97.10
17887;DHT22;9069;52.044;7.472;2024-02-21T11:39:51;14.00;97.30
17887;DHT22;9069;52.044;7.472;2024-02-21T11:42:19;13.90;97.20
17887;DHT22;9069;52.044;7.472;2024-02-21T11:44:46;13.90;97.20
17887;DHT22;9069;52.044;7.472;2024-02-21T11:47:14;13.90;97.20
17887;DHT22;9069;52.044;7.472;2024-02-21T11:49:48;13.90;97.10
17887;DHT22;9069;52.044;7.472;2024-02-21T11:52:17;13.90;96.90
17887;DHT22;9069;52.044;7.472;2024-02-21T11:54:45;13.90;97.40
17887;DHT22;9069;52.044;7.472;2024-02-21T11:57:12;13.90;97.50
17887;DHT22;9069;52.044;7.472;2024-02-21T11:59:44;13.90;97.50
17887;DHT22;9069;52.044;7.472;2024-02-21T12:02:12;13.90;97.30
17887;DHT22;9069;52.044;7.472;2024-02-21T12:04:39;13.90;97.50
17887;DHT22;9069;52.044;7.472;2024-02-21T12:07:06;13.90;97.50
17887;DHT22;9069;52.044;7.472;2024-02-21T12:09:34;13.90;97.40
17887;DHT22;9069;52.044;7.472;2024-02-21T12:12:03;13.90;97.20
17887;DHT22;9069;52.044;7.472;2024-02-21T12:14:33;13.90;97.00
17887;DHT22;9069;52.044;7.472;2024-02-21T12:17:00;13.90;97.00
17887;DHT22;9069;52.044;7.472;2024-02-21T12:19:29;13.90;97.00
17887;DHT22;9069;52.044;7.472;2024-02-21T12:21:58;13.90;96.90
17887;DHT22;9069;52.044;7.472;2024-02-21T12:24:26;13.90;96.90
17887;DHT22;9069;52.044;7.472;2024-02-21T12:26:55;13.80;96.90
17887;DHT22;9069;52.044;7.472;2024-02-21T12:29:24;13.80;96.90
17887;DHT22;9069;52.044;7.472;2024-02-21T12:31:55;13.80;96.90
17887;DHT22;9069;52.044;7.472;2024-02-21T12:34:23;13.80;97.00
17887;DHT22;9069;52.044;7.472;2024-02-21T12:37:04;13.80;97.00
17887;DHT22;9069;52.044;7.472;2024-02-21T12:39:31;13.80;97.00
17887;DHT22;9069;52.044;7.472;2024-02-21T12:41:59;13.80;97.00
17887;DHT22;9069;52.044;7.472;2024-02-21T12:44:26;13.90;97.10
17887;DHT22;9069;52.044;7.472;2024-02-21T12:46:54;13.80;97.10
17887;DHT22;9069;52.044;7.472;2024-02-21T12:49:22;13.90;97.10
17887;DHT22;9069;52.044;7.472;2024-02-21T12:51:49;13.90;97.00
17887;DHT22;9069;52.044;7.472;2024-02-21T12:54:16;13.90;96.90
17887;DHT22;9069;52.044;7.472;2024-02-21T12:56:42;13.90;96.90
17887;DHT22;9069;52.044;7.472;2024-02-21T12:59:09;13.90;96.80
17887;DHT22;9069;52.044;7.472;2024-02-21T13:01:36;14.00;96.90
17887;DHT22;9069;52.044;7.472;2024-02-21T13:04:05;14.00;96.80
17887;DHT22;9069;52.044;7.472;2024-02-21T13:06:32;14.00;96.80
17887;DHT22;9069;52.044;7.472;2024-02-21T13:08:59;14.00;96.70
17887;DHT22;9069;52.044;7.472;2024-02-21T13:11:29;14.00;96.60
17887;DHT22;9069;52.044;7.472;2024-02-21T13:13:58;14.00;96.60
17887;DHT22;9069;52.044;7.472;2024-02-21T13:16:27;14.00;96.60
17887;DHT22;9069;52.044;7.472;2024-02-21T13:18:54;14.10;96.60
17887;DHT22;9069;52.044;7.472;2024-02-21T13:21:21;14.10;96.60
17887;DHT22;9069;52.044;7.472;2024-02-21T13:23:48;14.10;96.70
17887;DHT22;9069;52.044;7.472;2024-02-21T13:26:15;14.10;96.60
17887;DHT22;9069;52.044;7.472;2024-02-21T13:28:42;14.10;96.60
17887;DHT22;9069;52.044;7.472;2024-02-21T13:31:11;14.10;96.60
17887;DHT22;9069;52.044;7.472;2024-02-21T13:33:38;14.10;96.60
17887;DHT22;9069;52.044;7.472;2024-02-21T13:36:05;14.10;96.50
17887;DHT22;9069;52.044;7.472;2024-02-21T13:38:32;14.10;96.30
17887;DHT22;9069;52.044;7.472;2024-02-21T13:40:59;14.10;96.30
17887;DHT22;9069;52.044;7.472;2024-02-21T13:43:30;14.10;96.30
17887;DHT22;9069;52.044;7.472;2024-02-21T13:45:59;14.20;96.30
17887;DHT22;9069;52.044;7.472;2024-02-21T13:48:32;14.20;96.10
17887;DHT22;9069;52.044;7.472;2024-02-21T13:51:03;14.20;96.20
17887;DHT22;9069;52.044;7.472;2024-02-21T13:53:30;14.20;95.80
17887;DHT22;9069;52.044;7.472;2024-02-21T13:55:57;14.20;96.20
17887;DHT22;9069;52.044;7.472;2024-02-21T13:58:24;14.20;96.20
17887;DHT22;9069;52.044;7.472;2024-02-21T14:00:53;14.20;96.10
17887;DHT22;9069;52.044;7.472;2024-02-21T14:03:20;14.30;96.00
17887;DHT22;9069;52.044;7.472;2024-02-21T14:05:47;14.30;95.90
17887;DHT22;9069;52.044;7.472;2024-02-21T14:08:15;14.30;95.70
17887;DHT22;9069;52.044;7.472;2024-02-21T14:10:42;14.30;95.80
17887;DHT22;9069;52.044;7.472;2024-02-21T14:13:09;14.30;95.70
17887;DHT22;9069;52.044;7.472;2024-02-21T14:15:36;14.30;95.60
17887;DHT22;9069;52.044;7.472;2024-02-21T14:18:04;14.30;95.40
17887;DHT22;9069;52.044;7.472;2024-02-21T14:20:36;14.30;95.40
17887;DHT22;9069;52.044;7.472;2024-02-21T14:23:03;14.30;95.30
17887;DHT22;9069;52.044;7.472;2024-02-21T14:25:31;14.30;95.10
17887;DHT22;9069;52.044;7.472;2024-02-21T14:28:00;14.30;95.10
17887;DHT22;9069;52.044;7.472;2024-02-21T14:30:27;14.30;95.10
17887;DHT22;9069;52.044;7.472;2024-02-21T14:32:54;14.30;95.00
17887;DHT22;9069;52.044;7.472;2024-02-21T14:35:21;14.30;95.00
17887;DHT22;9069;52.044;7.472;2024-02-21T14:37:48;14.20;94.80
17887;DHT22;9069;52.044;7.472;2024-02-21T14:40:19;14.20;94.70
17887;DHT22;9069;52.044;7.472;2024-02-21T14:42:47;14.20;95.10
17887;DHT22;9069;52.044;7.472;2024-02-21T14:45:14;14.20;94.70
17887;DHT22;9069;52.044;7.472;2024-02-21T14:47:41;14.20;94.60
17887;DHT22;9069;52.044;7.472;2024-02-21T14:50:08;14.20;94.70
17887;DHT22;9069;52.044;7.472;2024-02-21T14:52:36;14.20;94.80
17887;DHT22;9069;52.044;7.472;2024-02-21T14:55:04;14.20;94.70
17887;DHT22;9069;52.044;7.472;2024-02-21T14:57:32;14.20;94.50
17887;DHT22;9069;52.044;7.472;2024-02-21T14:59:58;14.10;94.50
17887;DHT22;9069;52.044;7.472;2024-02-21T15:02:27;14.10;94.50
17887;DHT22;9069;52.044;7.472;2024-02-21T15:04:55;14.10;94.50
17887;DHT22;9069;52.044;7.472;2024-02-21T15:07:22;14.10;94.30
17887;DHT22;9069;52.044;7.472;2024-02-21T15:09:53;14.10;94.30
17887;DHT22;9069;52.044;7.472;2024-02-21T15:12:20;14.10;94.30
17887;DHT22;9069;52.044;7.472;2024-02-21T15:14:46;14.10;94.30
17887;DHT22;9069;52.044;7.472;2024-02-21T15:17:13;14.10;94.30
17887;DHT22;9069;52.044;7.472;2024-02-21T15:19:40;14.10;94.20
17887;DHT22;9069;52.044;7.472;2024-02-21T15:22:11;14.10;94.10
17887;DHT22;9069;52.044;7.472;2024-02-21T15:24:41;14.00;94.10
17887;DHT22;9069;52.044;7.472;2024-02-21T15:27:08;14.00;93.70
17887;DHT22;9069;52.044;7.472;2024-02-21T15:29:37;14.00;94.10
17887;DHT22;9069;52.044;7.472;2024-02-21T15:32:04;14.00;93.80
17887;DHT22;9069;52.044;7.472;2024-02-21T15:34:31;14.00;93.90
17887;DHT22;9069;52.044;7.472;2024-02-21T15:36:59;14.00;94.00
17887;DHT22;9069;52.044;7.472;2024-02-21T15:39:26;14.00;93.90
17887;DHT22;9069;52.044;7.472;2024-02-21T15:41:54;14.00;93.90
17887;DHT22;9069;52.044;7.472;2024-02-21T15:44:22;13.90;93.80
17887;DHT22;9069;52.044;7.472;2024-02-21T15:46:49;13.90;93.90
17887;DHT22;9069;52.044;7.472;2024-02-21T15:49:18;13.90;93.80
17887;DHT22;9069;52.044;7.472;2024-02-21T15:51:45;13.90;93.80
17887;DHT22;9069;52.044;7.472;2024-02-21T15:54:12;13.90;93.80
17887;DHT22;9069;52.044;7.472;2024-02-21T15:56:43;13.90;93.80